Time;durP1;ratioP1;P1;durP2;ratioP2;P2;SDS_P1;SDS_P2;PMS_P1;PMS_P2;Temp;Humidity;BMP_temperature;BMP_pressure;BME280_temperature;BME280_humidity;BME280_pressure;Samples;Min_cycle;Max_cycle;Signal;HPM_P1;HPM_P2
2022/07/13 00:00:36;;;;;;;10.95;7.95;;;24.00;99.90;;;;;;5094877;28;20038;-71
2022/07/13 00:03:02;;;;;;;14.70;7.90;;;24.00;99.90;;;;;;5094798;28;20028;-72
2022/07/13 00:05:28;;;;;;;14.25;8.85;;;23.90;99.90;;;;;;5094733;28;20039;-73
2022/07/13 00:07:54;;;;;;;15.43;9.57;;;23.90;99.90;;;;;;5094464;28;20016;-72
2022/07/13 00:10:20;;;;;;;11.68;8.55;;;23.60;99.90;;;;;;5094311;28;20035;-72
2022/07/13 00:12:45;;;;;;;9.80;8.80;;;23.60;99.90;;;;;;5093568;28;20024;-72
2022/07/13 00:15:11;;;;;;;11.07;9.43;;;23.70;99.90;;;;;;5094447;28;20024;-73
2022/07/13 00:17:37;;;;;;;11.73;10.02;;;23.60;99.90;;;;;;5093474;28;20032;-73
2022/07/13 00:20:03;;;;;;;15.13;8.95;;;23.60;99.90;;;;;;5093963;28;20016;-74
2022/07/13 00:22:29;;;;;;;15.15;10.45;;;23.70;99.90;;;;;;5084547;28;20028;-73
2022/07/13 00:24:55;;;;;;;13.65;10.02;;;23.60;99.90;;;;;;5093911;28;20024;-72
2022/07/13 00:27:20;;;;;;;13.23;9.73;;;23.60;99.90;;;;;;5094552;28;20020;-72
2022/07/13 00:29:46;;;;;;;11.63;9.43;;;23.60;99.90;;;;;;5093954;28;20036;-72
2022/07/13 00:32:11;;;;;;;10.50;8.77;;;23.50;99.90;;;;;;5094163;28;20060;-72
2022/07/13 00:34:37;;;;;;;10.10;8.55;;;23.30;99.90;;;;;;5094612;28;20547;-73
2022/07/13 00:37:03;;;;;;;10.48;8.43;;;23.20;99.90;;;;;;5094235;28;20039;-72
2022/07/13 00:39:29;;;;;;;11.32;10.10;;;23.30;99.90;;;;;;5093250;28;20076;-72
2022/07/13 00:41:54;;;;;;;11.73;9.48;;;23.30;99.90;;;;;;5093752;28;20507;-71
2022/07/13 00:44:20;;;;;;;11.52;8.98;;;23.40;99.90;;;;;;5093695;28;20020;-72
2022/07/13 00:46:52;;;;;;;10.23;8.48;;;23.30;99.90;;;;;;5093974;28;20032;-72
2022/07/13 00:49:18;;;;;;;11.98;8.75;;;23.40;99.90;;;;;;5092633;28;20034;-72
2022/07/13 00:51:44;;;;;;;10.68;9.32;;;23.30;99.90;;;;;;5091037;28;20476;-71
2022/07/13 00:54:11;;;;;;;12.27;9.88;;;23.30;99.90;;;;;;5092420;28;20476;-71
2022/07/13 00:56:37;;;;;;;10.43;9.27;;;23.40;99.90;;;;;;5093417;28;20477;-72
2022/07/13 00:59:05;;;;;;;13.07;9.02;;;23.40;99.90;;;;;;5093694;28;20024;-71
2022/07/13 01:01:31;;;;;;;10.50;8.15;;;23.40;99.90;;;;;;5093956;28;20024;-71
2022/07/13 01:03:56;;;;;;;9.35;8.43;;;23.40;99.90;;;;;;5092981;28;20050;-71
2022/07/13 01:06:22;;;;;;;12.98;9.27;;;23.30;99.90;;;;;;5093816;28;20032;-72
2022/07/13 01:08:48;;;;;;;14.65;9.02;;;23.20;99.90;;;;;;5093020;28;20027;-71
2022/07/13 01:11:14;;;;;;;12.38;8.70;;;23.30;99.90;;;;;;5090663;28;20035;-71
2022/07/13 01:13:40;;;;;;;12.65;8.55;;;23.20;99.90;;;;;;5093547;28;20016;-72
2022/07/13 01:16:09;;;;;;;10.38;8.20;;;23.10;99.90;;;;;;5088069;28;20511;-72
2022/07/13 01:18:35;;;;;;;12.60;8.75;;;23.20;99.90;;;;;;5085272;28;20481;-72
2022/07/13 01:21:01;;;;;;;10.43;8.13;;;23.10;99.90;;;;;;5093801;28;20016;-71
2022/07/13 01:23:27;;;;;;;9.60;8.23;;;23.10;99.90;;;;;;5113328;28;20047;-72
2022/07/13 01:25:56;;;;;;;11.25;8.07;;;23.20;99.90;;;;;;5113501;28;20066;-72
2022/07/13 01:28:25;;;;;;;8.50;7.57;;;23.10;99.90;;;;;;5113786;28;20027;-72
2022/07/13 01:30:50;;;;;;;8.82;7.93;;;23.10;99.90;;;;;;5113455;28;20031;-71
2022/07/13 01:33:16;;;;;;;8.93;7.80;;;23.10;99.90;;;;;;5094427;28;20023;-71
2022/07/13 01:35:42;;;;;;;8.55;7.63;;;23.10;99.90;;;;;;5093284;28;20111;-71
2022/07/13 01:38:08;;;;;;;10.52;8.45;;;23.10;99.90;;;;;;5092731;28;20042;-71
2022/07/13 01:40:34;;;;;;;8.65;7.75;;;23.00;99.90;;;;;;5088522;28;20013;-71
2022/07/13 01:42:59;;;;;;;8.13;6.80;;;23.00;99.90;;;;;;5072840;28;20028;-72
2022/07/13 01:45:25;;;;;;;11.88;7.85;;;23.00;99.90;;;;;;5072820;28;20078;-72
2022/07/13 01:47:55;;;;;;;9.88;8.38;;;23.00;99.90;;;;;;5091797;28;20031;-71
2022/07/13 01:50:25;;;;;;;10.02;7.85;;;23.00;99.90;;;;;;5097556;28;20039;-72
2022/07/13 01:52:51;;;;;;;11.13;7.32;;;23.10;99.90;;;;;;5113398;28;20047;-72
2022/07/13 01:55:17;;;;;;;8.10;6.80;;;23.00;99.90;;;;;;5112787;28;20030;-71
2022/07/13 01:57:44;;;;;;;10.73;7.25;;;23.00;99.90;;;;;;5099740;28;20047;-72
2022/07/13 02:00:18;;;;;;;12.43;8.00;;;23.00;99.90;;;;;;5093181;28;20362;-71
2022/07/13 02:02:44;;;;;;;8.27;6.82;;;23.00;99.90;;;;;;5099494;28;20039;-71
2022/07/13 02:05:11;;;;;;;10.05;6.88;;;23.00;99.90;;;;;;5098739;28;20132;-72
2022/07/13 02:07:38;;;;;;;10.38;6.90;;;23.00;99.90;;;;;;5099255;28;20016;-72
2022/07/13 02:10:04;;;;;;;11.30;7.18;;;22.90;99.90;;;;;;5099485;28;20035;-71
2022/07/13 02:12:30;;;;;;;7.97;7.20;;;22.90;99.90;;;;;;5099648;28;20481;-71
2022/07/13 02:14:55;;;;;;;8.60;6.95;;;23.00;99.90;;;;;;5099518;28;20028;-71
2022/07/13 02:17:21;;;;;;;9.18;7.38;;;22.90;99.90;;;;;;5099246;28;20063;-71
2022/07/13 02:19:47;;;;;;;10.15;7.15;;;22.90;99.90;;;;;;5099454;28;20535;-72
2022/07/13 02:22:12;;;;;;;8.30;6.28;;;22.80;99.90;;;;;;5099461;28;20147;-72
2022/07/13 02:24:38;;;;;;;8.50;6.18;;;22.80;99.90;;;;;;5099770;28;20019;-71
2022/07/13 02:27:04;;;;;;;9.43;6.45;;;22.80;99.90;;;;;;5099467;28;20089;-72
2022/07/13 02:29:29;;;;;;;10.02;6.72;;;22.80;99.90;;;;;;5099447;28;20104;-71
2022/07/13 02:31:55;;;;;;;7.28;6.40;;;22.80;99.90;;;;;;5099543;28;20020;-71
2022/07/13 02:34:24;;;;;;;9.27;6.60;;;22.80;99.90;;;;;;5098859;28;20024;-71
2022/07/13 02:36:49;;;;;;;7.53;6.63;;;22.80;99.90;;;;;;5099299;28;20073;-71
2022/07/13 02:39:15;;;;;;;7.07;6.47;;;22.80;99.90;;;;;;5099315;28;20563;-72
2022/07/13 02:41:40;;;;;;;7.35;6.65;;;22.80;99.90;;;;;;5098999;28;20388;-72
2022/07/13 02:44:06;;;;;;;9.60;6.43;;;22.80;99.90;;;;;;5099395;28;20085;-71
2022/07/13 02:46:32;;;;;;;6.45;5.95;;;22.70;99.90;;;;;;5099272;28;20103;-71
2022/07/13 02:48:57;;;;;;;10.02;6.47;;;22.80;99.90;;;;;;5098492;28;20485;-71
2022/07/13 02:51:23;;;;;;;7.93;6.28;;;22.80;99.90;;;;;;5098404;28;20024;-72
2022/07/13 02:53:48;;;;;;;12.13;7.03;;;22.80;99.90;;;;;;5099220;28;20081;-71
2022/07/13 02:56:14;;;;;;;8.57;5.95;;;22.70;99.90;;;;;;5098063;28;20097;-71
2022/07/13 02:58:40;;;;;;;6.85;5.95;;;22.80;99.90;;;;;;5099475;28;20056;-71
2022/07/13 03:01:05;;;;;;;8.98;6.40;;;22.70;99.90;;;;;;5098886;28;20020;-72
2022/07/13 03:03:31;;;;;;;8.75;6.22;;;22.70;99.90;;;;;;5099085;28;20020;-72
2022/07/13 03:05:57;;;;;;;7.10;6.07;;;22.70;99.90;;;;;;5099216;28;20491;-71
2022/07/13 03:08:23;;;;;;;7.65;5.57;;;22.60;99.90;;;;;;5099288;28;20027;-71
2022/07/13 03:10:49;;;;;;;7.40;6.43;;;22.50;99.90;;;;;;5099228;28;20028;-71
2022/07/13 03:13:14;;;;;;;8.00;6.82;;;22.40;99.90;;;;;;5095452;28;20035;-72
2022/07/13 03:15:40;;;;;;;9.25;6.38;;;22.50;99.90;;;;;;5082860;28;20536;-72
2022/07/13 03:18:07;;;;;;;7.35;5.97;;;22.60;99.90;;;;;;5094855;28;20039;-72
2022/07/13 03:20:34;;;;;;;9.77;6.40;;;22.60;99.90;;;;;;5095885;28;20019;-71
2022/07/13 03:23:00;;;;;;;6.40;5.70;;;22.60;99.90;;;;;;5095720;28;20034;-71
2022/07/13 03:25:26;;;;;;;7.18;6.00;;;22.60;99.90;;;;;;5095419;28;20096;-72
2022/07/13 03:27:52;;;;;;;7.75;5.68;;;22.60;99.90;;;;;;5095543;28;20116;-71
2022/07/13 03:30:17;;;;;;;6.57;5.85;;;22.50;99.90;;;;;;5095430;28;20105;-72
2022/07/13 03:32:43;;;;;;;6.50;5.82;;;22.50;99.90;;;;;;5094966;28;20365;-71
2022/07/13 03:35:09;;;;;;;6.72;5.97;;;22.60;99.90;;;;;;5095619;28;20028;-72
2022/07/13 03:37:35;;;;;;;11.10;5.13;;;22.50;99.90;;;;;;5095537;28;20114;-71
2022/07/13 03:40:00;;;;;;;6.47;5.18;;;22.50;99.90;;;;;;5095332;28;20066;-72
2022/07/13 03:42:26;;;;;;;5.85;4.93;;;22.50;99.90;;;;;;5095387;28;20114;-71
2022/07/13 03:44:51;;;;;;;6.90;5.05;;;22.50;99.90;;;;;;5095116;28;20389;-71
2022/07/13 03:47:18;;;;;;;5.72;5.22;;;22.50;99.90;;;;;;5094977;28;20524;-72
2022/07/13 03:49:43;;;;;;;6.50;4.90;;;22.50;99.90;;;;;;5095401;28;20112;-71
2022/07/13 03:52:09;;;;;;;5.97;5.50;;;22.50;99.90;;;;;;5094875;28;20027;-72
2022/07/13 03:54:35;;;;;;;7.30;5.18;;;22.50;99.90;;;;;;5094818;28;20032;-71
2022/07/13 03:57:00;;;;;;;6.93;5.10;;;22.50;99.90;;;;;;5095166;28;20043;-72
2022/07/13 03:59:26;;;;;;;6.50;5.10;;;22.60;99.90;;;;;;5095065;28;20054;-72
2022/07/13 04:01:51;;;;;;;8.43;4.95;;;22.50;99.90;;;;;;5094924;28;20453;-72
2022/07/13 04:04:17;;;;;;;7.60;4.63;;;22.50;99.90;;;;;;5080894;28;20024;-71
2022/07/13 04:06:43;;;;;;;5.22;4.13;;;22.50;99.90;;;;;;5074855;28;20029;-72
2022/07/13 04:09:08;;;;;;;4.63;3.90;;;22.50;99.90;;;;;;5093507;28;20405;-72
2022/07/13 04:11:34;;;;;;;4.68;4.28;;;22.50;99.90;;;;;;5094069;28;20085;-72
2022/07/13 04:13:59;;;;;;;7.45;4.57;;;22.50;99.90;;;;;;5094258;28;20465;-72
2022/07/13 04:16:25;;;;;;;8.60;4.35;;;22.60;99.90;;;;;;5094360;28;20028;-72
2022/07/13 04:18:51;;;;;;;4.85;4.35;;;22.50;99.90;;;;;;5094710;28;20024;-72
2022/07/13 04:21:16;;;;;;;4.85;4.18;;;22.50;99.90;;;;;;5094637;28;20026;-72
2022/07/13 04:23:42;;;;;;;6.13;4.72;;;22.50;99.90;;;;;;5094235;28;20024;-72
2022/07/13 04:26:08;;;;;;;4.55;4.13;;;22.50;99.90;;;;;;5094902;28;20107;-72
2022/07/13 04:28:33;;;;;;;6.85;4.10;;;22.50;99.90;;;;;;5094366;28;20063;-72
2022/07/13 04:31:00;;;;;;;6.35;4.60;;;22.50;99.90;;;;;;5092151;28;20028;-71
2022/07/13 04:33:25;;;;;;;4.85;3.97;;;22.50;99.90;;;;;;5072868;28;20107;-72
2022/07/13 04:35:51;;;;;;;5.65;4.20;;;22.50;99.90;;;;;;5078781;28;20043;-72
2022/07/13 04:38:17;;;;;;;6.03;3.80;;;22.50;99.90;;;;;;5093130;28;20388;-72
2022/07/13 04:40:42;;;;;;;6.60;4.80;;;22.60;99.90;;;;;;5094442;28;20028;-72
2022/07/13 04:43:08;;;;;;;6.82;4.38;;;22.60;99.90;;;;;;5094106;28;20024;-71
2022/07/13 04:45:34;;;;;;;5.40;4.72;;;22.60;99.90;;;;;;5094272;28;20024;-72
2022/07/13 04:48:00;;;;;;;8.57;4.10;;;22.60;99.90;;;;;;5094193;28;20426;-72
2022/07/13 04:50:26;;;;;;;4.57;3.90;;;22.60;99.90;;;;;;5094030;28;20028;-68
2022/07/13 04:52:51;;;;;;;6.22;5.05;;;22.60;99.90;;;;;;5094230;28;20021;-72
2022/07/13 04:55:17;;;;;;;4.30;3.90;;;22.60;99.90;;;;;;5092165;28;20055;-71
2022/07/13 04:57:44;;;;;;;5.28;4.20;;;22.60;99.90;;;;;;5090377;28;20067;-72
2022/07/13 05:00:11;;;;;;;6.38;4.75;;;22.60;99.90;;;;;;5093574;28;20097;-71
2022/07/13 05:02:37;;;;;;;5.13;4.00;;;22.60;99.90;;;;;;5093399;28;20047;-70
2022/07/13 05:05:04;;;;;;;4.18;3.80;;;22.70;99.90;;;;;;5093914;28;20469;-71
2022/07/13 05:07:30;;;;;;;5.28;4.18;;;22.70;99.90;;;;;;5093395;28;20035;-71
2022/07/13 05:09:56;;;;;;;6.43;3.80;;;22.70;99.90;;;;;;5091329;28;20016;-70
2022/07/13 05:12:22;;;;;;;7.00;3.92;;;22.80;99.90;;;;;;5093808;28;20095;-71
2022/07/13 05:14:48;;;;;;;4.38;3.97;;;22.80;99.90;;;;;;5077540;28;20096;-71
2022/07/13 05:17:13;;;;;;;6.05;4.70;;;22.80;99.90;;;;;;5080343;28;20449;-71
2022/07/13 05:19:39;;;;;;;5.15;4.15;;;22.80;99.90;;;;;;5092648;28;20031;-71
2022/07/13 05:22:05;;;;;;;4.68;4.18;;;22.80;99.90;;;;;;5088328;28;20028;-71
2022/07/13 05:24:31;;;;;;;7.35;3.30;;;22.90;99.90;;;;;;5092808;28;20050;-71
2022/07/13 05:26:56;;;;;;;4.15;3.70;;;22.90;99.90;;;;;;5093432;28;20036;-71
2022/07/13 05:29:22;;;;;;;3.50;3.17;;;23.00;99.90;;;;;;5093220;28;20027;-71
2022/07/13 05:31:48;;;;;;;3.60;3.30;;;23.00;99.90;;;;;;5092413;28;20353;-71
2022/07/13 05:34:13;;;;;;;4.57;3.45;;;23.00;99.90;;;;;;5092588;28;20031;-71
2022/07/13 05:36:39;;;;;;;5.07;3.83;;;23.00;99.90;;;;;;5092743;28;20028;-71
2022/07/13 05:39:04;;;;;;;4.90;3.42;;;23.00;99.90;;;;;;5092738;28;20475;-70
2022/07/13 05:41:32;;;;;;;4.07;3.72;;;23.00;99.90;;;;;;5092725;28;20040;-71
2022/07/13 05:43:59;;;;;;;3.50;3.13;;;23.00;99.90;;;;;;5093130;28;20012;-71
2022/07/13 05:46:25;;;;;;;5.93;3.28;;;23.00;99.90;;;;;;5093052;28;20012;-71
2022/07/13 05:48:51;;;;;;;4.38;3.38;;;23.10;99.90;;;;;;5091637;28;20023;-70
2022/07/13 05:51:16;;;;;;;6.03;3.63;;;23.00;99.90;;;;;;5090999;28;20028;-71
2022/07/13 05:53:42;;;;;;;4.55;3.10;;;23.00;99.90;;;;;;5092947;28;20385;-71
2022/07/13 05:56:09;;;;;;;3.78;3.47;;;23.10;99.90;;;;;;5092656;28;20024;-71
2022/07/13 05:58:35;;;;;;;5.35;3.10;;;23.10;99.90;;;;;;5092960;28;20046;-71
2022/07/13 06:01:01;;;;;;;5.78;2.85;;;23.10;99.90;;;;;;5091324;28;20028;-71
2022/07/13 06:03:26;;;;;;;5.72;4.28;;;23.20;99.90;;;;;;5093279;28;20469;-71
2022/07/13 06:05:52;;;;;;;4.25;3.25;;;23.30;99.90;;;;;;5093505;28;20021;-71
2022/07/13 06:08:18;;;;;;;4.90;3.90;;;23.30;99.90;;;;;;5092848;28;20016;-71
2022/07/13 06:10:44;;;;;;;4.70;4.00;;;23.20;99.90;;;;;;5092529;28;20475;-70
2022/07/13 06:13:10;;;;;;;5.30;4.13;;;23.20;99.90;;;;;;5092200;28;20035;-70
2022/07/13 06:15:36;;;;;;;4.03;3.30;;;23.30;99.90;;;;;;5092679;28;20028;-72
2022/07/13 06:18:02;;;;;;;5.05;3.75;;;23.40;99.90;;;;;;5092925;28;20369;-71
2022/07/13 06:20:27;;;;;;;4.03;3.63;;;23.50;99.90;;;;;;5092674;28;20020;-72
2022/07/13 06:23:11;;;;;;;5.97;3.58;;;23.50;99.90;;;;;;5092659;28;20032;-72
2022/07/13 06:25:39;;;;;;;3.45;3.15;;;23.50;99.90;;;;;;5092253;28;20035;-71
2022/07/13 06:28:05;;;;;;;7.90;3.20;;;23.60;99.90;;;;;;5092411;28;20028;-71
2022/07/13 06:30:31;;;;;;;5.15;2.88;;;23.70;99.90;;;;;;5092345;28;20024;-71
2022/07/13 06:32:57;;;;;;;5.78;3.10;;;23.60;99.90;;;;;;5092881;28;20024;-72
2022/07/13 06:35:23;;;;;;;6.55;3.65;;;23.70;99.90;;;;;;5092932;28;20020;-71
2022/07/13 06:37:49;;;;;;;5.68;3.20;;;23.70;99.90;;;;;;5091182;28;20086;-72
2022/07/13 06:40:15;;;;;;;3.67;2.83;;;23.80;99.90;;;;;;5092167;28;20032;-72
2022/07/13 06:42:41;;;;;;;64.72;10.32;;;23.90;99.90;;;;;;5092258;28;20024;-71
2022/07/13 06:45:07;;;;;;;20.98;4.65;;;24.00;99.90;;;;;;5092793;28;20024;-72
2022/07/13 06:47:32;;;;;;;5.75;3.42;;;23.90;99.90;;;;;;5091710;28;20400;-71
2022/07/13 06:49:58;;;;;;;3.40;2.90;;;24.00;99.90;;;;;;5096326;28;20017;-70
2022/07/13 06:52:24;;;;;;;6.00;3.13;;;24.00;99.90;;;;;;5095190;28;20367;-71
2022/07/13 06:54:49;;;;;;;4.97;2.97;;;24.10;99.90;;;;;;5095522;28;20027;-71
2022/07/13 06:57:15;;;;;;;5.53;3.05;;;24.20;99.90;;;;;;5095622;28;20040;-71
2022/07/13 06:59:42;;;;;;;6.95;3.30;;;24.20;99.90;;;;;;5102006;28;20457;-71
2022/07/13 07:02:08;;;;;;;6.20;2.63;;;24.30;99.90;;;;;;5097157;28;20032;-71
2022/07/13 07:04:34;;;;;;;12.32;3.03;;;24.30;99.90;;;;;;5095658;28;20078;-71
2022/07/13 07:07:00;;;;;;;7.10;3.33;;;24.30;99.90;;;;;;5094862;28;20136;-71
2022/07/13 07:09:26;;;;;;;6.57;3.30;;;24.40;99.90;;;;;;5096203;28;20024;-70
2022/07/13 07:11:52;;;;;;;6.30;2.88;;;24.30;99.90;;;;;;5095638;28;20028;-71
2022/07/13 07:14:17;;;;;;;6.03;2.83;;;24.40;99.90;;;;;;5095337;28;20111;-70
2022/07/13 07:16:43;;;;;;;12.25;4.10;;;24.40;99.90;;;;;;5095717;28;20135;-71
2022/07/13 07:19:10;;;;;;;10.57;3.38;;;24.50;99.90;;;;;;5095384;28;20023;-71
2022/07/13 07:21:36;;;;;;;5.05;2.80;;;24.60;99.90;;;;;;5095066;28;20111;-71
2022/07/13 07:24:03;;;;;;;5.35;2.90;;;24.60;99.90;;;;;;5095475;28;20031;-70
2022/07/13 07:26:30;;;;;;;3.85;2.50;;;24.80;99.90;;;;;;5095796;28;20039;-70
2022/07/13 07:28:56;;;;;;;5.10;3.15;;;24.80;99.90;;;;;;5095539;28;20035;-71
2022/07/13 07:31:23;;;;;;;8.15;3.40;;;24.80;99.90;;;;;;5088838;28;20085;-71
2022/07/13 07:33:48;;;;;;;12.50;11.23;;;24.90;99.90;;;;;;5095137;28;20032;-73
2022/07/13 07:36:16;;;;;;;4.03;3.30;;;25.20;99.90;;;;;;5095599;28;20089;-74
2022/07/13 07:38:45;;;;;;;11.57;2.90;;;25.30;99.90;;;;;;5088068;28;20386;-73
2022/07/13 07:41:11;;;;;;;6.32;3.33;;;25.40;99.90;;;;;;5091048;28;20488;-74
2022/07/13 07:43:37;;;;;;;5.82;2.95;;;25.50;99.90;;;;;;5095401;28;20024;-73
2022/07/13 07:46:03;;;;;;;9.63;2.80;;;25.70;99.90;;;;;;5094872;28;20033;-73
2022/07/13 07:48:29;;;;;;;5.05;3.03;;;25.70;99.90;;;;;;5095157;28;20023;-73
2022/07/13 07:50:54;;;;;;;7.10;2.88;;;25.70;99.90;;;;;;5094453;28;20472;-72
2022/07/13 07:53:20;;;;;;;5.78;2.88;;;25.80;99.90;;;;;;5110760;28;20042;-72
2022/07/13 07:55:46;;;;;;;5.93;3.10;;;26.10;99.90;;;;;;5094418;28;20081;-72
2022/07/13 07:58:13;;;;;;;6.30;3.10;;;26.20;99.90;;;;;;5093503;28;20048;-72
2022/07/13 08:00:41;;;;;;;4.88;3.13;;;26.20;99.90;;;;;;5094649;28;20104;-72
2022/07/13 08:03:07;;;;;;;4.90;2.83;;;26.20;99.90;;;;;;5095141;28;20434;-72
2022/07/13 08:05:33;;;;;;;6.43;3.40;;;26.30;99.90;;;;;;5093344;28;20026;-72
2022/07/13 08:07:58;;;;;;;4.88;3.03;;;26.30;99.90;;;;;;5094633;28;20099;-71
2022/07/13 08:10:24;;;;;;;10.18;4.00;;;26.20;99.90;;;;;;5094724;28;20028;-72
2022/07/13 08:12:51;;;;;;;6.60;3.53;;;26.20;99.90;;;;;;5094039;28;20020;-71
2022/07/13 08:15:16;;;;;;;3.88;3.25;;;26.20;99.90;;;;;;5094499;28;20043;-71
2022/07/13 08:17:42;;;;;;;5.97;3.50;;;26.30;99.90;;;;;;5094409;28;20059;-72
2022/07/13 08:20:08;;;;;;;9.85;2.92;;;26.50;99.90;;;;;;5094737;28;20149;-72
2022/07/13 08:22:34;;;;;;;7.90;3.45;;;26.60;99.90;;;;;;5093657;28;20031;-71
2022/07/13 08:24:59;;;;;;;5.00;2.72;;;26.80;99.90;;;;;;5093278;28;20028;-72
2022/07/13 08:27:27;;;;;;;6.80;3.38;;;26.80;99.90;;;;;;5094279;28;20043;-71
2022/07/13 08:29:52;;;;;;;5.20;3.85;;;26.80;99.90;;;;;;5094589;28;20051;-72
2022/07/13 08:32:18;;;;;;;5.60;3.10;;;26.90;99.90;;;;;;5093828;28;20469;-72
2022/07/13 08:40:13;;;;;;;3.22;2.58;;;27.30;99.70;;;;;;5094078;28;20023;-73
2022/07/13 08:42:39;;;;;;;9.85;3.13;;;27.30;99.50;;;;;;5094342;28;20024;-72
2022/07/13 08:45:06;;;;;;;7.38;3.22;;;27.40;99.90;;;;;;5087565;28;20451;-72
2022/07/13 08:47:31;;;;;;;6.07;2.72;;;27.40;99.50;;;;;;5090643;28;20487;-72
2022/07/13 08:50:06;;;;;;;8.68;3.30;;;27.40;99.90;;;;;;5092811;28;20051;-71
2022/07/13 08:52:33;;;;;;;6.25;2.97;;;27.40;99.90;;;;;;5093701;28;20081;-72
2022/07/13 08:54:59;;;;;;;3.50;2.80;;;27.40;99.90;;;;;;5093942;28;20043;-72
2022/07/13 08:57:25;;;;;;;4.85;2.75;;;27.40;99.80;;;;;;5093890;28;20404;-72
2022/07/13 08:59:51;;;;;;;6.25;2.88;;;27.40;99.90;;;;;;5093983;28;20016;-71
2022/07/13 09:02:17;;;;;;;4.68;2.65;;;27.50;99.90;;;;;;5091314;28;20396;-72
2022/07/13 09:04:44;;;;;;;4.95;2.53;;;27.50;99.90;;;;;;5094197;28;20028;-72
2022/07/13 09:07:11;;;;;;;6.18;3.00;;;27.50;99.90;;;;;;5093519;28;20091;-72
2022/07/13 09:09:38;;;;;;;5.75;2.60;;;27.60;99.90;;;;;;5093095;28;20052;-71
2022/07/13 09:12:16;;;;;;;6.50;2.78;;;27.60;99.90;;;;;;5079674;28;20020;-71
2022/07/13 09:14:44;;;;;;;7.25;3.10;;;27.70;99.90;;;;;;5090426;28;20024;-72
2022/07/13 09:17:33;;;;;;;5.80;3.30;;;27.70;99.90;;;;;;5090781;28;20042;-72
2022/07/13 09:20:03;;;;;;;6.78;2.63;;;27.70;99.80;;;;;;5092608;28;20016;-72
2022/07/13 09:22:29;;;;;;;6.13;3.08;;;27.80;99.90;;;;;;5093665;28;20027;-72
2022/07/13 09:24:55;;;;;;;6.57;2.88;;;28.00;99.90;;;;;;5093257;28;20032;-72
2022/07/13 09:27:21;;;;;;;5.88;3.17;;;27.90;99.90;;;;;;5093281;28;20099;-71
2022/07/13 09:29:47;;;;;;;6.65;3.03;;;27.90;99.60;;;;;;5092412;28;20040;-72
2022/07/13 09:32:14;;;;;;;4.65;3.40;;;28.00;99.90;;;;;;5088508;28;20027;-72
2022/07/13 09:34:51;;;;;;;9.40;3.03;;;28.00;99.90;;;;;;5093172;28;20081;-72
2022/07/13 09:37:18;;;;;;;7.22;3.30;;;27.90;99.90;;;;;;5092334;28;20031;-72
2022/07/13 09:40:08;;;;;;;5.95;3.60;;;28.00;99.90;;;;;;5093016;28;20028;-72
2022/07/13 09:42:39;;;;;;;5.28;3.28;;;28.00;99.90;;;;;;5078986;28;20032;-72
2022/07/13 09:47:53;;;;;;;5.75;3.60;;;28.20;99.90;;;;;;5082583;28;20500;-72
2022/07/13 09:50:21;;;;;;;10.57;3.95;;;28.20;99.90;;;;;;5083378;28;20149;-71
2022/07/13 09:52:47;;;;;;;7.72;3.75;;;28.30;99.90;;;;;;5081891;28;20025;-71
2022/07/13 09:55:22;;;;;;;9.05;3.97;;;28.20;99.90;;;;;;5084517;28;20028;-72
2022/07/13 09:57:56;;;;;;;4.90;3.45;;;28.20;99.90;;;;;;5078107;28;20043;-72
2022/07/13 10:00:22;;;;;;;6.38;3.95;;;28.30;99.90;;;;;;5082847;28;20012;-72
2022/07/13 10:02:50;;;;;;;7.00;3.38;;;28.50;99.90;;;;;;5079720;28;20031;-72
2022/07/13 10:05:18;;;;;;;8.15;3.85;;;28.80;99.90;;;;;;5085519;28;20012;-71
2022/07/13 10:07:46;;;;;;;9.95;4.40;;;28.90;99.90;;;;;;5090511;28;20444;-73
2022/07/13 10:10:14;;;;;;;7.32;3.72;;;28.90;99.80;;;;;;5082934;28;20036;-73
2022/07/13 10:12:41;;;;;;;6.07;3.35;;;28.90;99.90;;;;;;5086057;28;20031;-72
2022/07/13 10:15:07;;;;;;;7.15;4.60;;;28.80;99.90;;;;;;5083997;28;20487;-72
2022/07/13 10:17:34;;;;;;;6.55;3.60;;;29.10;99.90;;;;;;5080381;28;20063;-72
2022/07/13 10:20:21;;;;;;;6.18;3.42;;;29.60;99.40;;;;;;5085105;28;20099;-72
2022/07/13 10:22:50;;;;;;;6.45;3.53;;;29.80;97.90;;;;;;5081782;28;20020;-72
2022/07/13 10:25:17;;;;;;;6.03;4.25;;;29.70;96.80;;;;;;5082307;28;20020;-73
2022/07/13 10:27:43;;;;;;;9.25;3.80;;;29.50;97.30;;;;;;5089327;28;20027;-72
2022/07/13 10:30:17;;;;;;;10.00;3.90;;;29.40;97.70;;;;;;5090873;28;20465;-72
2022/07/13 10:32:42;;;;;;;7.72;3.97;;;29.30;97.90;;;;;;5082439;28;20491;-71
2022/07/13 10:35:10;;;;;;;8.23;3.50;;;29.10;96.90;;;;;;5091537;28;20024;-72
2022/07/13 10:37:58;;;;;;;8.40;3.85;;;29.10;97.50;;;;;;5094744;28;20036;-71
2022/07/13 10:40:40;;;;;;;6.85;3.45;;;29.10;96.50;;;;;;5091364;28;20469;-72
2022/07/13 10:43:05;;;;;;;4.50;3.20;;;29.30;97.40;;;;;;5085060;28;20017;-74
2022/07/13 10:48:13;;;;;;;4.95;3.15;;;30.00;96.60;;;;;;5095000;28;20027;-72
2022/07/13 10:50:46;;;;;;;3.80;3.50;;;30.20;95.80;;;;;;5082946;28;20026;-73
2022/07/13 10:53:16;;;;;;;4.07;2.78;;;30.20;95.70;;;;;;5083082;28;20024;-72
2022/07/13 10:55:51;;;;;;;3.60;2.50;;;30.20;94.30;;;;;;5087461;28;20027;-72
2022/07/13 10:58:32;;;;;;;6.10;2.88;;;30.10;95.00;;;;;;5092708;28;20039;-72
2022/07/13 11:00:59;;;;;;;3.60;2.70;;;30.20;95.00;;;;;;5089289;28;20052;-72
2022/07/13 11:03:29;;;;;;;7.97;3.10;;;30.20;94.50;;;;;;5085723;28;20036;-72
2022/07/13 11:06:06;;;;;;;3.60;2.85;;;30.10;95.40;;;;;;5089947;28;20588;-74
2022/07/13 11:08:32;;;;;;;4.55;2.78;;;30.30;94.80;;;;;;5091245;28;20095;-72
2022/07/13 11:11:17;;;;;;;6.70;2.55;;;30.30;93.90;;;;;;5092162;28;20154;-74
2022/07/13 11:13:45;;;;;;;3.45;2.50;;;30.10;94.20;;;;;;5090671;28;20024;-75
2022/07/13 11:16:13;;;;;;;2.40;2.20;;;30.20;95.10;;;;;;5088357;28;20032;-73
2022/07/13 11:18:40;;;;;;;4.40;2.17;;;30.40;94.10;;;;;;5092292;28;20354;-74
2022/07/13 11:21:18;;;;;;;4.13;2.20;;;30.70;94.00;;;;;;5086562;28;20008;-74
2022/07/13 11:26:37;;;;;;;3.90;1.80;;;31.20;93.20;;;;;;5090450;28;20046;-74
2022/07/13 11:29:27;;;;;;;3.20;1.98;;;31.40;91.70;;;;;;5087744;28;20476;-73
2022/07/13 11:31:56;;;;;;;1.55;1.40;;;31.30;91.80;;;;;;5088637;28;20092;-74
2022/07/13 11:34:23;;;;;;;4.00;1.52;;;31.40;91.60;;;;;;5084846;28;20477;-74
2022/07/13 11:36:49;;;;;;;3.85;1.75;;;31.30;91.60;;;;;;5085870;28;20127;-73
2022/07/13 11:39:23;;;;;;;3.15;1.67;;;31.40;91.00;;;;;;5083222;28;20037;-73
2022/07/13 11:41:48;;;;;;;2.55;1.42;;;31.30;91.70;;;;;;5090210;28;20023;-75
2022/07/13 11:44:14;;;;;;;1.55;1.45;;;31.20;91.30;;;;;;5089908;28;20028;-73
2022/07/13 11:46:39;;;;;;;1.80;1.40;;;31.20;91.20;;;;;;5089726;28;20376;-73
2022/07/13 11:49:06;;;;;;;1.60;1.50;;;31.30;91.00;;;;;;5091621;28;20047;-73
2022/07/13 11:51:32;;;;;;;1.90;1.67;;;31.40;91.20;;;;;;5084520;28;20032;-74
2022/07/13 11:54:08;;;;;;;6.07;1.98;;;31.40;91.50;;;;;;5083771;28;20016;-74
2022/07/13 11:56:34;;;;;;;5.35;1.85;;;31.30;91.80;;;;;;5080856;28;20066;-74
2022/07/13 11:58:59;;;;;;;2.83;1.70;;;31.20;92.40;;;;;;5086411;28;20024;-74
2022/07/13 12:01:25;;;;;;;2.60;1.60;;;31.10;92.80;;;;;;5083643;28;20043;-74
2022/07/13 12:03:51;;;;;;;2.58;1.85;;;31.00;92.20;;;;;;5088497;28;20025;-75
2022/07/13 12:06:18;;;;;;;2.30;2.08;;;30.90;92.40;;;;;;5080943;28;20386;-74
2022/07/13 12:08:45;;;;;;;3.90;2.00;;;30.80;93.50;;;;;;5082140;28;20469;-74
2022/07/13 12:11:17;;;;;;;2.55;1.80;;;30.80;92.10;;;;;;5083487;28;20491;-74
2022/07/13 12:13:44;;;;;;;3.72;1.70;;;30.80;92.70;;;;;;5082100;28;20032;-74
2022/07/13 12:16:12;;;;;;;6.38;1.60;;;31.00;92.70;;;;;;5087239;28;20012;-74
2022/07/13 12:19:03;;;;;;;2.75;1.60;;;31.10;92.20;;;;;;5080223;28;20021;-74
2022/07/13 12:21:30;;;;;;;2.55;1.40;;;31.10;91.70;;;;;;5082363;28;20028;-74
2022/07/13 12:23:58;;;;;;;2.83;1.40;;;31.00;91.70;;;;;;5084179;28;20025;-74
2022/07/13 12:26:24;;;;;;;3.15;1.55;;;31.00;93.00;;;;;;5086446;28;20473;-74
2022/07/13 12:28:50;;;;;;;3.33;1.50;;;30.90;92.80;;;;;;5079859;28;20465;-75
2022/07/13 12:31:20;;;;;;;4.40;1.70;;;30.80;91.70;;;;;;5085400;28;20024;-74
2022/07/13 12:33:47;;;;;;;3.83;2.00;;;30.80;92.20;;;;;;5084016;28;20020;-74
2022/07/13 12:36:14;;;;;;;1.92;1.60;;;30.70;92.80;;;;;;5080468;28;20032;-74
2022/07/13 12:39:01;;;;;;;2.30;1.77;;;30.60;91.80;;;;;;5085597;28;20028;-74
2022/07/13 12:41:35;;;;;;;2.55;1.83;;;30.50;92.20;;;;;;5082964;28;20025;-74
2022/07/13 12:44:06;;;;;;;2.78;1.67;;;30.40;92.10;;;;;;5080346;28;20027;-74
2022/07/13 12:46:45;;;;;;;2.75;1.70;;;30.30;92.00;;;;;;5081878;28;20020;-74
2022/07/13 12:49:11;;;;;;;3.33;1.50;;;30.20;92.20;;;;;;5085782;28;20021;-74
2022/07/13 12:51:48;;;;;;;4.03;1.67;;;30.20;92.70;;;;;;5083371;28;20373;-75
2022/07/13 12:54:14;;;;;;;3.30;2.00;;;30.20;93.00;;;;;;5078539;28;20066;-74
2022/07/13 12:56:51;;;;;;;2.42;1.77;;;30.50;92.80;;;;;;5083439;28;20044;-74
2022/07/13 12:59:20;;;;;;;2.08;1.73;;;30.60;92.70;;;;;;5086898;28;20027;-73